sensor_id;sensor_type;location;lat;lon;timestamp;pressure;altitude;pressure_sealevel;temperature;humidity
29197;BME280;62796;42.654;23.316;2023-03-22T00:00:51;94237.47;;;12.51;59.99
29197;BME280;62796;42.654;23.316;2023-03-22T00:03:17;94238.72;;;12.50;60.21
29197;BME280;62796;42.654;23.316;2023-03-22T00:05:43;94241.00;;;12.46;60.62
29197;BME280;62796;42.654;23.316;2023-03-22T00:08:08;94229.63;;;12.44;60.52
29197;BME280;62796;42.654;23.316;2023-03-22T00:10:36;94228.88;;;12.44;60.81
29197;BME280;62796;42.654;23.316;2023-03-22T00:13:03;94227.09;;;12.35;60.54
29197;BME280;62796;42.654;23.316;2023-03-22T00:15:28;94224.56;;;12.26;60.91
29197;BME280;62796;42.654;23.316;2023-03-22T00:17:57;94229.13;;;12.29;60.71
29197;BME280;62796;42.654;23.316;2023-03-22T00:20:24;94223.56;;;12.29;60.74
29197;BME280;62796;42.654;23.316;2023-03-22T00:22:49;94230.88;;;12.32;60.57
29197;BME280;62796;42.654;23.316;2023-03-22T00:25:15;94232.66;;;12.35;60.61
29197;BME280;62796;42.654;23.316;2023-03-22T00:27:41;94228.13;;;12.32;60.66
29197;BME280;62796;42.654;23.316;2023-03-22T00:30:08;94223.06;;;12.36;61.12
29197;BME280;62796;42.654;23.316;2023-03-22T00:32:35;94214.47;;;12.34;60.78
29197;BME280;62796;42.654;23.316;2023-03-22T00:35:03;94224.84;;;12.39;61.00
29197;BME280;62796;42.654;23.316;2023-03-22T00:37:28;94218.03;;;12.29;61.18
29197;BME280;62796;42.654;23.316;2023-03-22T00:39:59;94221.56;;;12.35;61.15
29197;BME280;62796;42.654;23.316;2023-03-22T00:42:24;94215.72;;;12.28;60.73
29197;BME280;62796;42.654;23.316;2023-03-22T00:44:49;94223.56;;;12.29;60.47
29197;BME280;62796;42.654;23.316;2023-03-22T00:47:15;94203.38;;;12.23;60.81
29197;BME280;62796;42.654;23.316;2023-03-22T00:49:40;94218.03;;;12.29;60.79
29197;BME280;62796;42.654;23.316;2023-03-22T00:52:05;94212.47;;;12.29;60.59
29197;BME280;62796;42.654;23.316;2023-03-22T00:54:31;94202.13;;;12.24;60.78
29197;BME280;62796;42.654;23.316;2023-03-22T00:56:56;94205.91;;;12.21;60.81
29197;BME280;62796;42.654;23.316;2023-03-22T00:59:22;94213.72;;;12.28;61.17
29197;BME280;62796;42.654;23.316;2023-03-22T01:01:48;94212.47;;;12.29;61.45
29197;BME280;62796;42.654;23.316;2023-03-22T01:04:13;94210.94;;;12.28;60.94
29197;BME280;62796;42.654;23.316;2023-03-22T01:06:42;94205.91;;;12.32;61.00
29197;BME280;62796;42.654;23.316;2023-03-22T01:09:09;94202.13;;;12.30;60.62
29197;BME280;62796;42.654;23.316;2023-03-22T01:11:43;94194.28;;;12.28;60.61
29197;BME280;62796;42.654;23.316;2023-03-22T01:14:08;94199.59;;;12.20;60.90
29197;BME280;62796;42.654;23.316;2023-03-22T01:16:35;94206.63;;;12.16;61.35
29197;BME280;62796;42.654;23.316;2023-03-22T01:19:01;94203.38;;;12.12;61.53
29197;BME280;62796;42.654;23.316;2023-03-22T01:21:27;94201.84;;;12.11;61.50
29197;BME280;62796;42.654;23.316;2023-03-22T01:23:53;94195.53;;;12.05;61.54
29197;BME280;62796;42.654;23.316;2023-03-22T01:26:18;94203.63;;;12.03;61.68
29197;BME280;62796;42.654;23.316;2023-03-22T01:28:43;94185.91;;;11.89;62.22
29197;BME280;62796;42.654;23.316;2023-03-22T01:31:09;94196.00;;;11.87;62.31
29197;BME280;62796;42.654;23.316;2023-03-22T01:33:34;94203.34;;;11.90;62.79
29197;BME280;62796;42.654;23.316;2023-03-22T01:36:00;94198.56;;;11.96;62.48
29197;BME280;62796;42.654;23.316;2023-03-22T01:38:26;94194.53;;;11.97;62.34
29197;BME280;62796;42.654;23.316;2023-03-22T01:40:51;94183.91;;;11.90;62.76
29197;BME280;62796;42.654;23.316;2023-03-22T01:43:17;94199.03;;;11.89;62.75
29197;BME280;62796;42.654;23.316;2023-03-22T01:45:45;94189.94;;;11.83;63.03
29197;BME280;62796;42.654;23.316;2023-03-22T01:48:19;94188.94;;;11.80;63.06
29197;BME280;62796;42.654;23.316;2023-03-22T01:51:16;94190.69;;;11.78;63.25
29197;BME280;62796;42.654;23.316;2023-03-22T01:53:48;94194.75;;;11.77;63.03
29197;BME280;62796;42.654;23.316;2023-03-22T01:56:17;94186.44;;;11.82;63.15
29197;BME280;62796;42.654;23.316;2023-03-22T01:58:43;94186.16;;;11.86;63.22
29197;BME280;62796;42.654;23.316;2023-03-22T02:01:10;94193.97;;;11.71;63.53
29197;BME280;62796;42.654;23.316;2023-03-22T02:03:50;94190.66;;;11.66;63.36
29197;BME280;62796;42.654;23.316;2023-03-22T02:06:18;94185.34;;;11.68;62.82
29197;BME280;62796;42.654;23.316;2023-03-22T02:08:44;94181.31;;;11.64;63.07
29197;BME280;62796;42.654;23.316;2023-03-22T02:11:14;94184.13;;;11.75;63.45
29197;BME280;62796;42.654;23.316;2023-03-22T02:17:16;94182.13;;;11.87;62.73
29197;BME280;62796;42.654;23.316;2023-03-22T02:22:32;94175.16;;;11.32;63.54
29197;BME280;62796;42.654;23.316;2023-03-22T02:25:50;94185.53;;;11.43;63.19
29197;BME280;62796;42.654;23.316;2023-03-22T02:31:13;94188.56;;;11.50;62.62
29197;BME280;62796;42.654;23.316;2023-03-22T02:44:07;94205.84;;;11.77;62.03
29197;BME280;62796;42.654;23.316;2023-03-22T02:46:43;94208.84;;;11.73;61.90
29197;BME280;62796;42.654;23.316;2023-03-22T02:49:44;94207.09;;;11.76;62.06
29197;BME280;62796;42.654;23.316;2023-03-22T02:57:26;94212.16;;;11.88;61.57
29197;BME280;62796;42.654;23.316;2023-03-22T02:59:54;94213.16;;;11.85;61.43
29197;BME280;62796;42.654;23.316;2023-03-22T03:02:24;94213.66;;;11.84;61.25
29197;BME280;62796;42.654;23.316;2023-03-22T03:04:52;94212.41;;;11.85;61.36
29197;BME280;62796;42.654;23.316;2023-03-22T03:07:21;94212.41;;;11.85;61.52
29197;BME280;62796;42.654;23.316;2023-03-22T03:09:47;94213.41;;;11.82;61.39
29197;BME280;62796;42.654;23.316;2023-03-22T03:12:19;94209.63;;;11.85;61.22
29197;BME280;62796;42.654;23.316;2023-03-22T03:14:46;94208.88;;;11.79;61.40
29197;BME280;62796;42.654;23.316;2023-03-22T03:19:53;94210.53;;;11.54;60.72
29197;BME280;62796;42.654;23.316;2023-03-22T03:25:07;94211.72;;;11.36;60.72
29197;BME280;62796;42.654;23.316;2023-03-22T03:27:39;94215.78;;;11.41;60.47
29197;BME280;62796;42.654;23.316;2023-03-22T03:30:15;94216.53;;;11.47;59.97
29197;BME280;62796;42.654;23.316;2023-03-22T03:32:52;94213.53;;;11.56;59.68
29197;BME280;62796;42.654;23.316;2023-03-22T03:35:27;94213.31;;;11.59;58.97
29197;BME280;62796;42.654;23.316;2023-03-22T03:37:58;94220.38;;;11.60;58.87
29197;BME280;62796;42.654;23.316;2023-03-22T03:40:28;94218.38;;;11.55;58.81
29197;BME280;62796;42.654;23.316;2023-03-22T03:43:01;94218.09;;;11.59;58.89
29197;BME280;62796;42.654;23.316;2023-03-22T03:45:27;94214.31;;;11.56;58.72
29197;BME280;62796;42.654;23.316;2023-03-22T03:47:57;94226.47;;;11.64;58.66
29197;BME280;62796;42.654;23.316;2023-03-22T03:50:24;94226.47;;;11.64;58.99
29197;BME280;62796;42.654;23.316;2023-03-22T03:52:51;94218.63;;;11.68;59.03
29197;BME280;62796;42.654;23.316;2023-03-22T03:55:17;94225.91;;;11.49;59.55
29197;BME280;62796;42.654;23.316;2023-03-22T03:57:43;94228.66;;;11.44;59.84
29197;BME280;62796;42.654;23.316;2023-03-22T04:00:09;94221.06;;;11.44;59.88
29197;BME280;62796;42.654;23.316;2023-03-22T04:02:35;94228.38;;;11.36;60.11
29197;BME280;62796;42.654;23.316;2023-03-22T04:05:00;94228.91;;;11.40;60.01
29197;BME280;62796;42.654;23.316;2023-03-22T04:07:25;94233.94;;;11.47;60.31
29197;BME280;62796;42.654;23.316;2023-03-22T04:09:51;94230.69;;;11.54;60.39
29197;BME280;62796;42.654;23.316;2023-03-22T04:12:17;94234.00;;;11.58;60.37
29197;BME280;62796;42.654;23.316;2023-03-22T04:14:42;94236.72;;;11.53;60.05
29197;BME280;62796;42.654;23.316;2023-03-22T04:17:09;94228.94;;;11.51;60.52
29197;BME280;62796;42.654;23.316;2023-03-22T04:19:34;94232.72;;;11.54;60.78
29197;BME280;62796;42.654;23.316;2023-03-22T04:22:00;94240.81;;;11.57;60.48
29197;BME280;62796;42.654;23.316;2023-03-22T04:24:26;94230.19;;;11.56;60.82
29197;BME280;62796;42.654;23.316;2023-03-22T04:26:51;94237.56;;;11.64;60.71
29197;BME280;62796;42.654;23.316;2023-03-22T04:29:17;94233.50;;;11.65;60.84
29197;BME280;62796;42.654;23.316;2023-03-22T04:31:42;94234.00;;;11.58;60.74
29197;BME280;62796;42.654;23.316;2023-03-22T04:34:08;94238.28;;;11.59;61.30
29197;BME280;62796;42.654;23.316;2023-03-22T04:36:35;94250.91;;;11.60;61.61
29197;BME280;62796;42.654;23.316;2023-03-22T04:39:12;94242.56;;;11.60;61.38
29197;BME280;62796;42.654;23.316;2023-03-22T04:41:38;94239.56;;;11.58;61.08
29197;BME280;62796;42.654;23.316;2023-03-22T04:44:04;94254.69;;;11.63;61.13
29197;BME280;62796;42.654;23.316;2023-03-22T04:46:31;94250.66;;;11.58;61.35
29197;BME280;62796;42.654;23.316;2023-03-22T04:48:58;94249.34;;;11.48;61.45
29197;BME280;62796;42.654;23.316;2023-03-22T04:51:25;94258.66;;;11.45;61.83
29197;BME280;62796;42.654;23.316;2023-03-22T04:53:51;94253.84;;;11.40;61.75
29197;BME280;62796;42.654;23.316;2023-03-22T04:56:16;94260.38;;;11.37;61.96
29197;BME280;62796;42.654;23.316;2023-03-22T04:58:42;94263.91;;;11.38;61.86
29197;BME280;62796;42.654;23.316;2023-03-22T05:01:10;94265.72;;;11.46;61.85
29197;BME280;62796;42.654;23.316;2023-03-22T05:03:36;94257.88;;;11.45;61.95
29197;BME280;62796;42.654;23.316;2023-03-22T05:06:03;94262.94;;;11.41;61.44
29197;BME280;62796;42.654;23.316;2023-03-22T05:08:31;94272.75;;;11.42;62.10
29197;BME280;62796;42.654;23.316;2023-03-22T05:10:58;94267.47;;;11.44;61.58
29197;BME280;62796;42.654;23.316;2023-03-22T05:13:26;94276.75;;;11.35;61.74
29197;BME280;62796;42.654;23.316;2023-03-22T05:15:52;94278.03;;;11.34;61.46
29197;BME280;62796;42.654;23.316;2023-03-22T05:18:19;94270.41;;;11.29;61.90
29197;BME280;62796;42.654;23.316;2023-03-22T05:20:45;94283.78;;;11.31;61.60
29197;BME280;62796;42.654;23.316;2023-03-22T05:23:11;94280.25;;;11.30;61.74
29197;BME280;62796;42.654;23.316;2023-03-22T05:25:38;94282.56;;;11.37;61.87
29197;BME280;62796;42.654;23.316;2023-03-22T05:28:04;94284.56;;;11.31;61.85
29197;BME280;62796;42.654;23.316;2023-03-22T05:30:30;94284.34;;;11.40;61.40
29197;BME280;62796;42.654;23.316;2023-03-22T05:33:02;94285.84;;;11.41;61.54
29197;BME280;62796;42.654;23.316;2023-03-22T05:35:29;94287.91;;;11.46;61.43
29197;BME280;62796;42.654;23.316;2023-03-22T05:37:55;94286.38;;;11.45;61.21
29197;BME280;62796;42.654;23.316;2023-03-22T05:40:22;94284.63;;;11.48;61.07
29197;BME280;62796;42.654;23.316;2023-03-22T05:42:47;94291.97;;;11.56;61.20
29197;BME280;62796;42.654;23.316;2023-03-22T05:45:13;94292.50;;;11.60;60.53
29197;BME280;62796;42.654;23.316;2023-03-22T05:47:38;94296.06;;;11.66;60.83
29197;BME280;62796;42.654;23.316;2023-03-22T05:50:06;94299.31;;;11.65;61.02
29197;BME280;62796;42.654;23.316;2023-03-22T05:52:32;94294.31;;;11.69;61.04
29197;BME280;62796;42.654;23.316;2023-03-22T05:54:57;94296.09;;;11.72;60.83
29197;BME280;62796;42.654;23.316;2023-03-22T05:57:22;94303.19;;;11.79;60.88
29197;BME280;62796;42.654;23.316;2023-03-22T05:59:48;94309.00;;;11.81;61.14
29197;BME280;62796;42.654;23.316;2023-03-22T06:02:13;94313.31;;;11.82;61.17
29197;BME280;62796;42.654;23.316;2023-03-22T06:04:38;94311.00;;;11.80;61.72
29197;BME280;62796;42.654;23.316;2023-03-22T06:07:06;94305.72;;;11.77;61.45
29197;BME280;62796;42.654;23.316;2023-03-22T06:09:32;94289.97;;;11.62;61.33
29197;BME280;62796;42.654;23.316;2023-03-22T06:11:57;94316.50;;;11.69;61.01
29197;BME280;62796;42.654;23.316;2023-03-22T06:14:23;94325.38;;;11.73;60.62
29197;BME280;62796;42.654;23.316;2023-03-22T06:16:48;94321.06;;;11.72;60.81
29197;BME280;62796;42.654;23.316;2023-03-22T06:19:14;94309.72;;;11.70;60.77
29197;BME280;62796;42.654;23.316;2023-03-22T06:21:39;94322.28;;;11.65;60.92
29197;BME280;62796;42.654;23.316;2023-03-22T06:24:05;94314.94;;;11.57;60.83
29197;BME280;62796;42.654;23.316;2023-03-22T06:26:30;94309.38;;;11.57;61.43
29197;BME280;62796;42.654;23.316;2023-03-22T06:28:56;94321.03;;;11.66;61.02
29197;BME280;62796;42.654;23.316;2023-03-22T06:31:21;94325.28;;;11.62;61.35
29197;BME280;62796;42.654;23.316;2023-03-22T06:33:46;94323.03;;;11.66;61.40
29197;BME280;62796;42.654;23.316;2023-03-22T06:36:12;94316.69;;;11.54;61.53
29197;BME280;62796;42.654;23.316;2023-03-22T06:38:37;94333.13;;;11.63;61.92
29197;BME280;62796;42.654;23.316;2023-03-22T06:41:03;94329.34;;;11.66;62.27
29197;BME280;62796;42.654;23.316;2023-03-22T06:43:28;94329.66;;;11.74;61.99
29197;BME280;62796;42.654;23.316;2023-03-22T06:45:54;94335.50;;;11.82;61.82
29197;BME280;62796;42.654;23.316;2023-03-22T06:48:21;94334.50;;;11.85;61.89
29197;BME280;62796;42.654;23.316;2023-03-22T06:50:47;94334.50;;;11.85;61.91
29197;BME280;62796;42.654;23.316;2023-03-22T06:53:12;94337.03;;;11.88;61.96
29197;BME280;62796;42.654;23.316;2023-03-22T06:55:38;94334.53;;;11.96;61.64
29197;BME280;62796;42.654;23.316;2023-03-22T06:58:04;94334.06;;;11.97;61.71
29197;BME280;62796;42.654;23.316;2023-03-22T07:00:30;94343.66;;;12.07;61.12
29197;BME280;62796;42.654;23.316;2023-03-22T07:02:58;94355.78;;;12.10;61.34
29197;BME280;62796;42.654;23.316;2023-03-22T07:05:23;94355.06;;;12.15;60.94
29197;BME280;62796;42.654;23.316;2023-03-22T07:07:48;94354.31;;;12.20;60.23
29197;BME280;62796;42.654;23.316;2023-03-22T07:10:14;94361.38;;;12.21;59.99
29197;BME280;62796;42.654;23.316;2023-03-22T07:12:39;94359.38;;;12.27;59.44
29197;BME280;62796;42.654;23.316;2023-03-22T07:15:05;94361.16;;;12.30;59.54
29197;BME280;62796;42.654;23.316;2023-03-22T07:17:31;94364.19;;;12.32;59.73
29197;BME280;62796;42.654;23.316;2023-03-22T07:19:56;94360.16;;;12.33;58.92
29197;BME280;62796;42.654;23.316;2023-03-22T07:22:22;94358.88;;;12.34;59.15
29197;BME280;62796;42.654;23.316;2023-03-22T07:24:49;94368.50;;;12.33;59.44
29197;BME280;62796;42.654;23.316;2023-03-22T07:27:14;94376.31;;;12.35;58.88
29197;BME280;62796;42.654;23.316;2023-03-22T07:29:40;94370.75;;;12.35;59.19
29197;BME280;62796;42.654;23.316;2023-03-22T07:32:05;94376.81;;;12.33;58.69
29197;BME280;62796;42.654;23.316;2023-03-22T07:34:31;94381.09;;;12.34;59.19
29197;BME280;62796;42.654;23.316;2023-03-22T07:36:56;94377.53;;;12.28;59.54
29197;BME280;62796;42.654;23.316;2023-03-22T07:39:22;94386.63;;;12.29;60.13
29197;BME280;62796;42.654;23.316;2023-03-22T07:41:49;94380.06;;;12.26;60.14
29197;BME280;62796;42.654;23.316;2023-03-22T07:44:16;94379.06;;;12.29;58.45
29197;BME280;62796;42.654;23.316;2023-03-22T07:46:41;94384.16;;;12.36;57.82
29197;BME280;62796;42.654;23.316;2023-03-22T07:49:07;94380.09;;;12.37;57.68
29197;BME280;62796;42.654;23.316;2023-03-22T07:51:32;94390.97;;;12.46;57.63
29197;BME280;62796;42.654;23.316;2023-03-22T07:53:57;94392.50;;;12.47;56.85
29197;BME280;62796;42.654;23.316;2023-03-22T07:56:23;94391.50;;;12.45;56.60
29197;BME280;62796;42.654;23.316;2023-03-22T07:58:48;94395.28;;;12.47;56.81
29197;BME280;62796;42.654;23.316;2023-03-22T08:01:14;94395.28;;;12.47;57.00
29197;BME280;62796;42.654;23.316;2023-03-22T08:03:40;94391.03;;;12.68;71.95
29197;BME280;62796;42.654;23.316;2023-03-22T08:06:06;94386.00;;;12.84;57.24
29197;BME280;62796;42.654;23.316;2023-03-22T08:08:35;94397.63;;;12.82;56.05
29197;BME280;62796;42.654;23.316;2023-03-22T08:11:05;94394.34;;;12.84;55.71
29197;BME280;62796;42.654;23.316;2023-03-22T08:13:31;94384.50;;;12.83;55.48
29197;BME280;62796;42.654;23.316;2023-03-22T08:15:57;94390.28;;;12.85;55.67
29197;BME280;62796;42.654;23.316;2023-03-22T08:18:23;94399.91;;;12.84;55.60
29197;BME280;62796;42.654;23.316;2023-03-22T08:20:54;94392.06;;;12.76;56.30
29197;BME280;62796;42.654;23.316;2023-03-22T08:23:21;94395.31;;;12.69;55.97
29197;BME280;62796;42.654;23.316;2023-03-22T08:25:46;94400.38;;;12.71;56.32
29197;BME280;62796;42.654;23.316;2023-03-22T08:28:12;94404.66;;;12.61;57.09
29197;BME280;62796;42.654;23.316;2023-03-22T08:30:40;94403.16;;;12.60;56.82
29197;BME280;62796;42.654;23.316;2023-03-22T08:33:06;94408.41;;;12.52;57.47
29197;BME280;62796;42.654;23.316;2023-03-22T08:35:31;94400.84;;;12.47;56.94
29197;BME280;62796;42.654;23.316;2023-03-22T08:37:57;94402.63;;;12.50;57.14
29197;BME280;62796;42.654;23.316;2023-03-22T08:40:22;94404.41;;;12.53;56.51
29197;BME280;62796;42.654;23.316;2023-03-22T08:42:49;94407.94;;;12.54;56.80
29197;BME280;62796;42.654;23.316;2023-03-22T08:45:14;94406.41;;;12.58;57.30
29197;BME280;62796;42.654;23.316;2023-03-22T08:47:40;94409.97;;;12.64;57.30
29197;BME280;62796;42.654;23.316;2023-03-22T08:50:07;94400.38;;;12.65;57.45
29197;BME280;62796;42.654;23.316;2023-03-22T08:52:32;94406.44;;;12.69;57.57
29197;BME280;62796;42.654;23.316;2023-03-22T08:54:58;94417.53;;;12.69;57.76
29197;BME280;62796;42.654;23.316;2023-03-22T08:57:23;94415.53;;;12.75;57.79
29197;BME280;62796;42.654;23.316;2023-03-22T08:59:52;94413.03;;;12.77;57.63
29197;BME280;62796;42.654;23.316;2023-03-22T09:02:18;94417.06;;;12.76;58.11
29197;BME280;62796;42.654;23.316;2023-03-22T09:04:43;94406.97;;;12.73;58.17
29197;BME280;62796;42.654;23.316;2023-03-22T09:07:09;94419.84;;;12.82;58.18
29197;BME280;62796;42.654;23.316;2023-03-22T09:09:34;94424.66;;;12.82;58.29
29197;BME280;62796;42.654;23.316;2023-03-22T09:12:00;94421.63;;;12.80;58.24
29197;BME280;62796;42.654;23.316;2023-03-22T09:14:25;94423.41;;;12.83;58.37
29197;BME280;62796;42.654;23.316;2023-03-22T09:16:51;94428.19;;;12.82;58.21
29197;BME280;62796;42.654;23.316;2023-03-22T09:19:16;94421.38;;;12.83;58.28
29197;BME280;62796;42.654;23.316;2023-03-22T09:21:42;94429.19;;;12.85;58.69
29197;BME280;62796;42.654;23.316;2023-03-22T09:24:07;94425.41;;;12.88;58.70
29197;BME280;62796;42.654;23.316;2023-03-22T09:26:33;94429.97;;;12.91;59.09
29197;BME280;62796;42.654;23.316;2023-03-22T09:28:58;94422.63;;;12.88;58.98
29197;BME280;62796;42.654;23.316;2023-03-22T09:31:24;94430.72;;;12.86;58.84
29197;BME280;62796;42.654;23.316;2023-03-22T09:33:49;94429.19;;;12.85;58.57
29197;BME280;62796;42.654;23.316;2023-03-22T09:36:15;94425.16;;;12.86;58.70
29197;BME280;62796;42.654;23.316;2023-03-22T09:38:40;94426.69;;;12.87;58.72
29197;BME280;62796;42.654;23.316;2023-03-22T09:41:11;94416.31;;;12.82;58.68
29197;BME280;62796;42.654;23.316;2023-03-22T09:43:47;94419.84;;;12.88;58.28
29197;BME280;62796;42.654;23.316;2023-03-22T09:46:41;94421.91;;;12.87;58.51
29197;BME280;62796;42.654;23.316;2023-03-22T09:49:21;94432.75;;;12.80;58.81
29197;BME280;62796;42.654;23.316;2023-03-22T09:51:49;94425.16;;;12.74;59.07
29197;BME280;62796;42.654;23.316;2023-03-22T09:54:18;94416.06;;;12.68;58.86
29197;BME280;62796;42.654;23.316;2023-03-22T09:56:53;94422.59;;;12.65;59.24
29197;BME280;62796;42.654;23.316;2023-03-22T10:08:07;94431.16;;;12.45;59.25
29197;BME280;62796;42.654;23.316;2023-03-22T10:10:36;94429.38;;;12.48;59.69
29197;BME280;62796;42.654;23.316;2023-03-22T10:15:45;94438.50;;;12.59;59.20
29197;BME280;62796;42.654;23.316;2023-03-22T10:18:19;94443.84;;;12.68;58.58
29197;BME280;62796;42.654;23.316;2023-03-22T10:23:37;94447.88;;;12.78;57.70
29197;BME280;62796;42.654;23.316;2023-03-22T10:26:06;94442.06;;;12.76;57.37
29197;BME280;62796;42.654;23.316;2023-03-22T10:28:36;94442.09;;;12.82;57.33
29197;BME280;62796;42.654;23.316;2023-03-22T10:31:03;94433.25;;;12.84;56.62
29197;BME280;62796;42.654;23.316;2023-03-22T10:33:54;94434.53;;;12.88;55.89
29197;BME280;62796;42.654;23.316;2023-03-22T10:36:25;94432.75;;;12.91;55.97
29197;BME280;62796;42.654;23.316;2023-03-22T10:38:55;94436.28;;;12.97;55.77
29197;BME280;62796;42.654;23.316;2023-03-22T10:41:24;94432.25;;;12.98;56.09
29197;BME280;62796;42.654;23.316;2023-03-22T10:43:52;94438.06;;;13.00;56.59
29197;BME280;62796;42.654;23.316;2023-03-22T10:46:22;94446.16;;;13.03;56.60
29197;BME280;62796;42.654;23.316;2023-03-22T10:48:52;94442.66;;;13.08;56.37
29197;BME280;62796;42.654;23.316;2023-03-22T10:51:25;94441.16;;;13.13;56.18
29197;BME280;62796;42.654;23.316;2023-03-22T10:53:54;94441.41;;;13.15;56.26
29197;BME280;62796;42.654;23.316;2023-03-22T10:56:22;94427.50;;;13.09;56.51
29197;BME280;62796;42.654;23.316;2023-03-22T10:58:49;94435.84;;;13.15;56.44
29197;BME280;62796;42.654;23.316;2023-03-22T11:01:29;94434.84;;;13.18;56.71
29197;BME280;62796;42.654;23.316;2023-03-22T11:04:15;94425.47;;;13.15;57.21
29197;BME280;62796;42.654;23.316;2023-03-22T11:06:49;94434.84;;;13.18;57.19
29197;BME280;62796;42.654;23.316;2023-03-22T11:11:58;94436.59;;;13.15;57.73
29197;BME280;62796;42.654;23.316;2023-03-22T11:14:35;94429.28;;;13.18;57.49
29197;BME280;62796;42.654;23.316;2023-03-22T11:19:38;94440.41;;;13.23;57.34
29197;BME280;62796;42.654;23.316;2023-03-22T11:22:18;94426.25;;;13.27;57.51
29197;BME280;62796;42.654;23.316;2023-03-22T11:24:46;94425.75;;;13.23;57.83
29197;BME280;62796;42.654;23.316;2023-03-22T11:27:20;94426.00;;;13.25;57.53
29197;BME280;62796;42.654;23.316;2023-03-22T11:29:52;94424.22;;;13.33;57.43
29197;BME280;62796;42.654;23.316;2023-03-22T11:34:45;94426.00;;;13.36;56.90
29197;BME280;62796;42.654;23.316;2023-03-22T11:37:15;94413.59;;;13.37;56.59
29197;BME280;62796;42.654;23.316;2023-03-22T11:39:46;94429.28;;;13.40;56.02
29197;BME280;62796;42.654;23.316;2023-03-22T11:42:19;94426.22;;;13.38;55.56
29197;BME280;62796;42.654;23.316;2023-03-22T11:44:45;94417.63;;;13.42;54.94
29197;BME280;62796;42.654;23.316;2023-03-22T11:47:12;94417.91;;;13.44;55.29
29197;BME280;62796;42.654;23.316;2023-03-22T11:49:45;94417.63;;;13.47;54.90
29197;BME280;62796;42.654;23.316;2023-03-22T11:52:16;94413.59;;;13.48;54.79
29197;BME280;62796;42.654;23.316;2023-03-22T11:54:42;94418.16;;;13.51;54.59
29197;BME280;62796;42.654;23.316;2023-03-22T11:57:19;94416.13;;;13.52;54.37
29197;BME280;62796;42.654;23.316;2023-03-22T12:02:28;94419.41;;;13.50;54.16
29197;BME280;62796;42.654;23.316;2023-03-22T12:05:07;94422.19;;;13.50;54.08
29197;BME280;62796;42.654;23.316;2023-03-22T12:07:36;94419.91;;;13.54;53.65
29197;BME280;62796;42.654;23.316;2023-03-22T12:10:41;94424.47;;;13.46;53.37
29197;BME280;62796;42.654;23.316;2023-03-22T12:16:01;94419.16;;;13.48;53.62
29197;BME280;62796;42.654;23.316;2023-03-22T12:21:03;94418.41;;;13.48;53.90
29197;BME280;62796;42.654;23.316;2023-03-22T12:23:31;94411.81;;;13.51;53.67
29197;BME280;62796;42.654;23.316;2023-03-22T12:26:00;94424.72;;;13.54;53.81
29197;BME280;62796;42.654;23.316;2023-03-22T12:28:31;94416.13;;;13.52;53.68
29197;BME280;62796;42.654;23.316;2023-03-22T12:30:58;94414.34;;;13.54;54.31
29197;BME280;62796;42.654;23.316;2023-03-22T12:33:31;94409.56;;;13.49;53.86
29197;BME280;62796;42.654;23.316;2023-03-22T12:36:02;94412.56;;;13.51;54.21
29197;BME280;62796;42.654;23.316;2023-03-22T12:41:51;94408.53;;;13.41;53.03
29197;BME280;62796;42.654;23.316;2023-03-22T12:44:40;94402.47;;;13.48;52.18
29197;BME280;62796;42.654;23.316;2023-03-22T12:47:22;94399.41;;;13.57;51.96
29197;BME280;62796;42.654;23.316;2023-03-22T12:49:54;94402.91;;;13.74;51.88
29197;BME280;62796;42.654;23.316;2023-03-22T12:52:47;94400.88;;;13.80;52.95
29197;BME280;62796;42.654;23.316;2023-03-22T12:55:40;94393.28;;;13.81;52.98
29197;BME280;62796;42.654;23.316;2023-03-22T12:58:06;94395.78;;;13.96;52.75
29197;BME280;62796;42.654;23.316;2023-03-22T13:00:42;94400.31;;;14.04;52.04
29197;BME280;62796;42.654;23.316;2023-03-22T13:05:42;94408.13;;;14.17;49.39
29197;BME280;62796;42.654;23.316;2023-03-22T13:08:08;94399.03;;;14.11;49.71
29197;BME280;62796;42.654;23.316;2023-03-22T13:13:38;94404.84;;;14.07;50.88
29197;BME280;62796;42.654;23.316;2023-03-22T13:21:18;94404.88;;;14.02;51.36
29197;BME280;62796;42.654;23.316;2023-03-22T13:29:15;94389.19;;;13.99;50.63
29197;BME280;62796;42.654;23.316;2023-03-22T13:31:45;94392.25;;;14.01;50.72
29197;BME280;62796;42.654;23.316;2023-03-22T13:34:14;94386.88;;;14.08;50.43
29197;BME280;62796;42.654;23.316;2023-03-22T13:36:48;94392.19;;;14.12;51.13
29197;BME280;62796;42.654;23.316;2023-03-22T13:39:14;94366.16;;;13.98;51.18
29197;BME280;62796;42.654;23.316;2023-03-22T13:41:44;94387.59;;;14.20;50.88
29197;BME280;62796;42.654;23.316;2023-03-22T13:44:24;94394.47;;;14.13;50.97
29197;BME280;62796;42.654;23.316;2023-03-22T13:46:52;94398.25;;;14.16;51.08
29197;BME280;62796;42.654;23.316;2023-03-22T13:49:43;94402.31;;;14.15;51.59
29197;BME280;62796;42.654;23.316;2023-03-22T13:52:25;94390.53;;;13.75;53.84
29197;BME280;62796;42.654;23.316;2023-03-22T13:54:52;94397.63;;;13.76;52.00
29197;BME280;62796;42.654;23.316;2023-03-22T13:57:58;94405.19;;;13.87;52.34
29197;BME280;62796;42.654;23.316;2023-03-22T14:02:59;94399.91;;;12.84;54.82
29197;BME280;62796;42.654;23.316;2023-03-22T14:05:29;94410.06;;;13.31;53.55
29197;BME280;62796;42.654;23.316;2023-03-22T14:07:57;94399.94;;;13.56;52.89
29197;BME280;62796;42.654;23.316;2023-03-22T14:10:36;94396.88;;;13.70;52.00
29197;BME280;62796;42.654;23.316;2023-03-22T14:15:41;94398.53;;;14.07;50.27
29197;BME280;62796;42.654;23.316;2023-03-22T14:18:26;94399.03;;;14.11;50.22
29197;BME280;62796;42.654;23.316;2023-03-22T14:20:56;94397.00;;;14.11;50.56
29197;BME280;62796;42.654;23.316;2023-03-22T14:23:26;94401.03;;;14.21;50.54